Time;durP1;ratioP1;P1;durP2;ratioP2;P2;SDS_P1;SDS_P2;PMS_P1;PMS_P2;Temp;Humidity;BMP_temperature;BMP_pressure;BME280_temperature;BME280_humidity;BME280_pressure;Samples;Min_cycle;Max_cycle;Signal;HPM_P1;HPM_P2
2022/11/11 00:00:27;;;;;;;17.58;10.77;;;;;;;;;;5074783;28;20101;-63
2022/11/11 00:02:57;;;;;;;19.00;10.65;;;;;;;;;;5075220;28;20468;-64
2022/11/11 00:05:24;;;;;;;19.90;12.15;;;;;;;;;;5092871;28;20369;-62
2022/11/11 00:07:52;;;;;;;18.17;9.90;;;;;;;;;;5075133;28;20395;-64
2022/11/11 00:10:18;;;;;;;19.50;10.60;;;;;;;;;;5093366;28;20511;-63
2022/11/11 00:12:44;;;;;;;17.00;9.68;;;;;;;;;;5093296;28;20047;-65
2022/11/11 00:15:10;;;;;;;18.85;9.85;;;;;;;;;;5092438;28;20437;-64
2022/11/11 00:25:53;;;;;;;18.73;10.90;;;;;;;;;;5093051;28;20067;-62
2022/11/11 00:28:19;;;;;;;19.40;10.00;;;;;;;;;;5074749;28;20031;-63
2022/11/11 00:30:45;;;;;;;21.00;10.52;;;;;;;;;;5075130;28;20020;-63
2022/11/11 00:33:11;;;;;;;17.77;10.38;;;;;;;;;;5092063;28;20214;-63
2022/11/11 00:35:52;;;;;;;19.23;10.68;;;;;;;;;;5093133;28;20031;-63
2022/11/11 00:41:03;;;;;;;18.67;10.80;;;;;;;;;;5092704;28;20043;-63
2022/11/11 00:43:29;;;;;;;16.45;10.00;;;;;;;;;;5073338;28;20127;-64
2022/11/11 00:50:57;;;;;;;19.23;10.20;;;;;;;;;;5092590;28;20066;-63
2022/11/11 00:51:26;;;;;;;17.00;10.07;;;;;;;;;;5092696;28;20519;-63
2022/11/11 00:53:52;;;;;;;21.50;10.02;;;;;;;;;;5091789;28;20028;-63
2022/11/11 00:56:18;;;;;;;18.23;10.25;;;;;;;;;;5074488;28;20027;-63
2022/11/11 00:58:44;;;;;;;19.88;10.60;;;;;;;;;;5074619;28;20063;-60
2022/11/11 01:01:10;;;;;;;17.55;9.73;;;;;;;;;;5074403;28;20052;-64
2022/11/11 01:03:36;;;;;;;19.27;10.68;;;;;;;;;;5091758;28;20437;-64
2022/11/11 01:06:03;;;;;;;17.95;11.02;;;;;;;;;;5074489;28;20024;-63
2022/11/11 01:08:30;;;;;;;21.70;10.55;;;;;;;;;;5074170;28;20055;-63
2022/11/11 01:10:55;;;;;;;18.80;10.10;;;;;;;;;;5092480;28;20024;-63
2022/11/11 01:13:27;;;;;;;22.23;10.60;;;;;;;;;;5073403;28;20035;-63
2022/11/11 01:15:57;;;;;;;20.20;10.73;;;;;;;;;;5092362;28;20146;-63
2022/11/11 01:18:24;;;;;;;18.40;10.40;;;;;;;;;;5074137;28;20023;-64
2022/11/11 01:21:03;;;;;;;23.13;10.52;;;;;;;;;;5078924;28;20030;-65
2022/11/11 01:23:29;;;;;;;19.50;10.77;;;;;;;;;;5093563;28;20188;-64
2022/11/11 01:26:00;;;;;;;18.90;10.40;;;;;;;;;;5112592;28;20110;-62
2022/11/11 01:28:26;;;;;;;18.17;10.82;;;;;;;;;;5116413;28;20027;-63
2022/11/11 01:30:52;;;;;;;20.17;10.40;;;;;;;;;;5116387;28;20088;-62
2022/11/11 01:33:18;;;;;;;18.67;10.38;;;;;;;;;;5115517;28;20054;-62
2022/11/11 01:35:44;;;;;;;17.02;10.75;;;;;;;;;;5116466;28;20024;-63
2022/11/11 01:38:10;;;;;;;16.73;10.63;;;;;;;;;;5116434;28;20028;-64
2022/11/11 01:40:43;;;;;;;22.05;10.98;;;;;;;;;;5116319;28;20375;-64
2022/11/11 01:43:12;;;;;;;18.48;10.88;;;;;;;;;;5115330;28;20058;-62
2022/11/11 01:45:42;;;;;;;17.38;10.35;;;;;;;;;;5116078;28;20098;-61
2022/11/11 01:50:57;;;;;;;17.45;10.60;;;;;;;;;;5116441;28;20448;-61
2022/11/11 01:53:24;;;;;;;17.98;10.57;;;;;;;;;;5115151;28;20035;-63
2022/11/11 01:55:50;;;;;;;18.35;11.15;;;;;;;;;;5097855;28;20045;-59
2022/11/11 01:58:18;;;;;;;19.48;10.63;;;;;;;;;;5116138;28;20020;-64
2022/11/11 02:00:44;;;;;;;21.27;10.63;;;;;;;;;;5115930;28;20475;-62
2022/11/11 02:03:10;;;;;;;17.42;9.85;;;;;;;;;;5115049;28;20024;-62
2022/11/11 02:05:44;;;;;;;17.10;10.13;;;;;;;;;;5098466;28;20020;-62
2022/11/11 02:08:31;;;;;;;17.17;10.43;;;;;;;;;;5100638;28;20096;-61
2022/11/11 02:10:58;;;;;;;17.75;10.80;;;;;;;;;;5117743;28;20026;-63
2022/11/11 02:16:09;;;;;;;20.83;10.55;;;;;;;;;;5115707;28;20035;-64
2022/11/11 02:18:35;;;;;;;20.88;10.90;;;;;;;;;;5097248;28;20023;-64
2022/11/11 02:21:01;;;;;;;22.40;11.10;;;;;;;;;;5097311;28;20506;-62
2022/11/11 02:23:34;;;;;;;18.10;10.23;;;;;;;;;;5114752;28;20034;-63
2022/11/11 02:26:01;;;;;;;17.27;10.25;;;;;;;;;;5115386;28;20038;-62
2022/11/11 02:28:27;;;;;;;24.63;11.07;;;;;;;;;;5097058;28;20238;-62
2022/11/11 02:30:53;;;;;;;17.65;10.85;;;;;;;;;;5115304;28;20107;-62
2022/11/11 02:33:19;;;;;;;17.85;10.10;;;;;;;;;;5114732;28;20022;-64
2022/11/11 02:35:57;;;;;;;18.85;10.75;;;;;;;;;;5115115;28;20023;-62
2022/11/11 02:38:24;;;;;;;18.83;10.60;;;;;;;;;;5095659;28;20031;-62
2022/11/11 02:43:35;;;;;;;21.17;10.93;;;;;;;;;;5114384;28;20399;-62
2022/11/11 02:46:02;;;;;;;18.80;10.57;;;;;;;;;;5115003;28;20024;-64
2022/11/11 02:48:28;;;;;;;20.15;10.75;;;;;;;;;;5115025;28;20441;-62
2022/11/11 02:50:54;;;;;;;18.88;10.13;;;;;;;;;;5114869;28;20088;-62
2022/11/11 02:53:20;;;;;;;17.70;10.57;;;;;;;;;;5096092;28;20020;-62
2022/11/11 02:55:46;;;;;;;20.42;10.63;;;;;;;;;;5114854;28;20047;-64
2022/11/11 02:58:13;;;;;;;19.17;11.75;;;;;;;;;;5114710;28;20391;-63
2022/11/11 03:00:39;;;;;;;20.23;11.10;;;;;;;;;;5114967;28;20061;-62
2022/11/11 03:03:05;;;;;;;22.52;11.63;;;;;;;;;;5095655;28;20059;-62
2022/11/11 03:05:31;;;;;;;19.20;10.55;;;;;;;;;;5096522;28;20038;-62
2022/11/11 03:07:57;;;;;;;18.88;11.40;;;;;;;;;;5114704;28;20048;-63
2022/11/11 03:10:23;;;;;;;18.10;11.00;;;;;;;;;;5097579;28;20511;-61
2022/11/11 03:12:49;;;;;;;19.95;11.25;;;;;;;;;;5114473;28;20027;-62
2022/11/11 03:15:15;;;;;;;19.38;10.73;;;;;;;;;;5113768;28;20019;-62
2022/11/11 03:17:41;;;;;;;18.48;11.18;;;;;;;;;;5114521;28;20031;-63
2022/11/11 03:23:02;;;;;;;20.10;11.13;;;;;;;;;;5114409;28;20038;-62
2022/11/11 03:25:37;;;;;;;23.38;11.80;;;;;;;;;;5096127;28;20082;-61
2022/11/11 03:28:26;;;;;;;23.63;12.98;;;;;;;;;;5114030;28;20480;-61
2022/11/11 03:30:53;;;;;;;19.75;10.82;;;;;;;;;;5114280;28;20036;-63
2022/11/11 03:33:19;;;;;;;18.33;10.35;;;;;;;;;;5113198;28;20042;-63
2022/11/11 03:35:48;;;;;;;23.13;10.82;;;;;;;;;;5114561;28;20023;-60
2022/11/11 03:38:23;;;;;;;18.48;11.48;;;;;;;;;;5098879;28;20110;-62
2022/11/11 03:40:56;;;;;;;18.95;10.82;;;;;;;;;;5117410;28;20022;-60
2022/11/11 03:43:23;;;;;;;21.10;10.32;;;;;;;;;;5113499;28;20039;-63
2022/11/11 03:45:49;;;;;;;19.85;11.23;;;;;;;;;;5113987;28;20016;-62
2022/11/11 03:48:16;;;;;;;21.63;10.60;;;;;;;;;;5095693;28;20591;-64
2022/11/11 03:50:42;;;;;;;19.77;10.70;;;;;;;;;;5095100;28;20125;-60
2022/11/11 03:53:08;;;;;;;18.40;10.38;;;;;;;;;;5094728;28;20077;-63
2022/11/11 03:55:34;;;;;;;20.15;11.45;;;;;;;;;;5113521;28;20030;-63
2022/11/11 03:58:00;;;;;;;18.70;11.20;;;;;;;;;;5113920;28;20027;-62
2022/11/11 04:00:27;;;;;;;19.52;10.93;;;;;;;;;;5113620;28;20050;-61
2022/11/11 04:11:14;;;;;;;18.05;11.15;;;;;;;;;;5113723;28;20035;-63
2022/11/11 04:16:25;;;;;;;19.08;10.88;;;;;;;;;;5113697;28;20034;-63
2022/11/11 04:21:42;;;;;;;19.25;10.88;;;;;;;;;;5113441;28;20110;-63
2022/11/11 04:26:55;;;;;;;19.60;11.88;;;;;;;;;;5113248;28;20034;-63
2022/11/11 04:29:27;;;;;;;17.50;11.52;;;;;;;;;;5113111;28;20072;-64
2022/11/11 04:34:38;;;;;;;18.63;10.95;;;;;;;;;;5112243;28;20080;-63
2022/11/11 04:37:04;;;;;;;21.90;10.82;;;;;;;;;;5113100;28;20123;-64
2022/11/11 04:42:15;;;;;;;19.92;11.32;;;;;;;;;;5112794;28;20053;-64
2022/11/11 04:45:41;;;;;;;21.50;12.50;;;;;;;;;;5111886;28;20023;-63
2022/11/11 04:47:36;;;;;;;21.38;11.05;;;;;;;;;;5094736;28;20024;-63
2022/11/11 04:50:03;;;;;;;20.63;11.95;;;;;;;;;;5112908;28;20024;-61
2022/11/11 04:52:29;;;;;;;21.52;12.18;;;;;;;;;;5094658;28;20031;-62
2022/11/11 04:57:45;;;;;;;19.80;12.07;;;;;;;;;;5112848;28;20498;-64
2022/11/11 05:00:12;;;;;;;20.33;11.32;;;;;;;;;;5094690;28;20141;-62
2022/11/11 05:05:24;;;;;;;20.35;11.18;;;;;;;;;;5116685;28;20038;-62
2022/11/11 05:10:34;;;;;;;24.88;12.88;;;;;;;;;;5119804;28;20093;-64
2022/11/11 05:21:20;;;;;;;20.25;11.60;;;;;;;;;;5116854;28;20043;-64
2022/11/11 05:26:31;;;;;;;21.92;12.38;;;;;;;;;;5116675;28;20042;-62
2022/11/11 05:28:57;;;;;;;19.15;11.48;;;;;;;;;;5098164;28;20464;-63
2022/11/11 05:31:23;;;;;;;19.95;11.45;;;;;;;;;;5098392;28;20020;-64
2022/11/11 05:33:49;;;;;;;22.75;11.98;;;;;;;;;;5097576;28;20031;-63
2022/11/11 05:36:15;;;;;;;18.52;12.30;;;;;;;;;;5116423;28;20016;-63
2022/11/11 05:38:41;;;;;;;19.27;11.50;;;;;;;;;;5098225;28;20024;-63
2022/11/11 05:41:07;;;;;;;18.15;11.25;;;;;;;;;;5115370;28;20039;-63
2022/11/11 05:43:33;;;;;;;21.13;11.20;;;;;;;;;;5084033;22;20048;-67
2022/11/11 05:45:59;;;;;;;21.00;11.65;;;;;;;;;;5057175;28;20021;-68
2022/11/11 05:48:25;;;;;;;21.25;11.60;;;;;;;;;;5073577;28;20031;-67
2022/11/11 05:50:51;;;;;;;24.05;12.32;;;;;;;;;;5073381;28;20097;-67
2022/11/11 05:53:22;;;;;;;22.38;14.27;;;;;;;;;;5073024;28;20095;-71
2022/11/11 05:55:50;;;;;;;19.90;12.00;;;;;;;;;;5073423;28;20013;-67
2022/11/11 05:58:19;;;;;;;18.90;11.73;;;;;;;;;;5054797;28;20028;-69
2022/11/11 06:00:45;;;;;;;20.20;12.23;;;;;;;;;;5052028;28;20036;-67
2022/11/11 06:03:11;;;;;;;20.85;11.50;;;;;;;;;;5051207;28;20024;-66
2022/11/11 06:05:37;;;;;;;21.50;11.85;;;;;;;;;;5051804;28;20477;-67
2022/11/11 06:08:04;;;;;;;18.83;12.00;;;;;;;;;;5053243;28;20025;-67
2022/11/11 06:10:30;;;;;;;20.55;12.10;;;;;;;;;;5053315;28;20025;-67
2022/11/11 06:13:08;;;;;;;18.33;11.43;;;;;;;;;;5051609;28;20033;-66
2022/11/11 06:15:35;;;;;;;18.83;11.02;;;;;;;;;;5055685;28;20028;-69
2022/11/11 06:18:02;;;;;;;20.30;12.00;;;;;;;;;;5073083;28;20611;-68
2022/11/11 06:20:28;;;;;;;20.73;12.15;;;;;;;;;;5072945;28;20031;-65
2022/11/11 06:22:57;;;;;;;19.35;11.30;;;;;;;;;;5073034;28;20388;-69
2022/11/11 06:28:16;;;;;;;17.85;11.85;;;;;;;;;;5072972;28;20040;-68
2022/11/11 06:30:42;;;;;;;21.92;12.55;;;;;;;;;;5054827;28;20041;-67
2022/11/11 06:33:09;;;;;;;20.77;11.75;;;;;;;;;;5072115;28;20069;-67
2022/11/11 06:35:35;;;;;;;22.08;12.80;;;;;;;;;;5073033;28;20025;-66
2022/11/11 06:38:02;;;;;;;19.83;12.00;;;;;;;;;;5054822;28;20072;-67
2022/11/11 06:40:29;;;;;;;18.73;11.55;;;;;;;;;;5054736;28;20120;-66
2022/11/11 06:42:55;;;;;;;19.98;11.38;;;;;;;;;;5072420;28;20040;-67
2022/11/11 06:45:21;;;;;;;19.20;11.65;;;;;;;;;;5072477;28;20632;-67
2022/11/11 06:47:47;;;;;;;20.13;11.95;;;;;;;;;;5073685;28;20535;-68
2022/11/11 06:50:13;;;;;;;19.80;12.25;;;;;;;;;;5071606;28;20025;-66
2022/11/11 06:52:39;;;;;;;17.63;10.95;;;;;;;;;;5073100;28;20098;-67
2022/11/11 06:55:06;;;;;;;17.92;11.18;;;;;;;;;;5071495;28;20469;-66
2022/11/11 06:57:32;;;;;;;24.90;11.93;;;;;;;;;;5054854;28;20374;-68
2022/11/11 06:59:58;;;;;;;19.65;11.20;;;;;;;;;;5053314;28;20051;-71
2022/11/11 07:02:24;;;;;;;19.10;11.27;;;;;;;;;;5072251;28;20203;-69
2022/11/11 07:04:50;;;;;;;16.98;10.15;;;;;;;;;;5071439;28;20020;-69
2022/11/11 07:07:16;;;;;;;17.60;11.20;;;;;;;;;;5072447;28;20461;-67
2022/11/11 07:09:42;;;;;;;18.63;10.38;;;;;;;;;;5071963;28;20036;-68
2022/11/11 07:12:08;;;;;;;20.17;10.48;;;;;;;;;;5053887;28;20119;-68
2022/11/11 07:14:34;;;;;;;19.45;10.27;;;;;;;;;;5071405;28;20043;-69
2022/11/11 07:17:00;;;;;;;21.02;10.45;;;;;;;;;;5071597;28;20100;-68
2022/11/11 07:19:26;;;;;;;21.35;10.25;;;;;;;;;;5071883;28;20029;-67
2022/11/11 07:21:52;;;;;;;21.23;11.30;;;;;;;;;;5071921;28;20029;-68
2022/11/11 07:24:18;;;;;;;17.65;10.73;;;;;;;;;;5070608;28;20032;-68
2022/11/11 07:26:44;;;;;;;17.80;10.25;;;;;;;;;;5071721;28;20119;-68
2022/11/11 07:29:13;;;;;;;20.90;12.07;;;;;;;;;;5071753;28;20024;-68
2022/11/11 07:31:39;;;;;;;20.23;10.27;;;;;;;;;;5071874;28;20020;-68
2022/11/11 07:34:04;;;;;;;18.58;10.45;;;;;;;;;;5053530;28;20195;-68
2022/11/11 07:36:30;;;;;;;20.95;10.55;;;;;;;;;;5053574;28;20017;-68
2022/11/11 07:38:56;;;;;;;20.30;9.70;;;;;;;;;;5071608;28;20396;-64
2022/11/11 07:41:22;;;;;;;18.48;9.38;;;;;;;;;;5071628;28;20105;-64
2022/11/11 07:43:48;;;;;;;18.52;10.13;;;;;;;;;;5064483;28;20033;-62
2022/11/11 07:46:14;;;;;;;17.83;9.60;;;;;;;;;;5051197;28;20065;-65
2022/11/11 07:48:40;;;;;;;19.45;9.57;;;;;;;;;;5051055;28;20408;-65
2022/11/11 07:51:06;;;;;;;16.92;9.50;;;;;;;;;;5050982;28;20025;-65
2022/11/11 07:53:32;;;;;;;17.65;9.43;;;;;;;;;;5050152;28;20025;-65
2022/11/11 07:55:58;;;;;;;16.90;9.50;;;;;;;;;;5051031;28;20469;-65
2022/11/11 07:58:24;;;;;;;18.60;8.95;;;;;;;;;;5050983;28;20104;-69
2022/11/11 08:00:50;;;;;;;18.95;9.55;;;;;;;;;;5051104;28;20470;-69
2022/11/11 08:03:17;;;;;;;17.40;9.68;;;;;;;;;;5050082;28;20021;-69
2022/11/11 08:05:43;;;;;;;17.77;8.88;;;;;;;;;;5033230;28;20468;-69
2022/11/11 08:08:09;;;;;;;20.92;9.73;;;;;;;;;;5050590;28;20152;-69
2022/11/11 08:10:36;;;;;;;17.30;9.10;;;;;;;;;;5050625;28;20021;-67
2022/11/11 08:15:47;;;;;;;32.20;11.05;;;;;;;;;;5046377;28;20040;-69
2022/11/11 08:18:14;;;;;;;17.92;9.50;;;;;;;;;;5032483;28;20395;-67
2022/11/11 08:20:40;;;;;;;17.35;9.63;;;;;;;;;;5034104;28;20033;-68
2022/11/11 08:23:09;;;;;;;16.02;9.15;;;;;;;;;;5049591;28;20041;-68
2022/11/11 08:25:35;;;;;;;18.60;9.93;;;;;;;;;;5050374;28;20044;-68
2022/11/11 08:28:03;;;;;;;19.33;10.02;;;;;;;;;;5032452;28;20094;-68
2022/11/11 08:30:30;;;;;;;16.52;9.75;;;;;;;;;;5050310;28;20493;-68
2022/11/11 08:33:01;;;;;;;17.20;9.85;;;;;;;;;;5050002;28;20031;-67
2022/11/11 08:35:27;;;;;;;19.30;9.68;;;;;;;;;;5050207;28;20031;-68
2022/11/11 08:37:54;;;;;;;17.92;9.75;;;;;;;;;;5050212;28;20104;-67
2022/11/11 08:40:20;;;;;;;18.70;10.10;;;;;;;;;;5050146;28;20029;-70
2022/11/11 08:42:46;;;;;;;17.30;10.57;;;;;;;;;;5049963;28;20160;-69
2022/11/11 08:45:13;;;;;;;18.42;10.65;;;;;;;;;;5049359;28;20039;-67
2022/11/11 08:47:39;;;;;;;18.02;10.13;;;;;;;;;;5049732;28;20068;-68
2022/11/11 08:50:06;;;;;;;18.55;10.25;;;;;;;;;;5050085;28;20063;-68
2022/11/11 08:52:32;;;;;;;18.77;10.70;;;;;;;;;;5049827;28;20029;-68
2022/11/11 08:54:59;;;;;;;19.23;11.38;;;;;;;;;;5049345;28;20025;-68
2022/11/11 08:57:25;;;;;;;20.80;10.82;;;;;;;;;;5050447;28;20025;-56
2022/11/11 08:59:51;;;;;;;16.90;10.30;;;;;;;;;;5050153;28;20033;-69
2022/11/11 09:02:17;;;;;;;20.73;9.82;;;;;;;;;;5049976;28;20029;-69
2022/11/11 09:04:43;;;;;;;19.13;11.15;;;;;;;;;;5031691;28;20068;-66
2022/11/11 09:07:10;;;;;;;17.67;10.45;;;;;;;;;;5032723;28;20032;-69
2022/11/11 09:09:36;;;;;;;16.77;10.80;;;;;;;;;;5050332;28;20074;-68
2022/11/11 09:12:02;;;;;;;18.23;10.80;;;;;;;;;;5050135;28;20155;-67
2022/11/11 09:14:29;;;;;;;21.58;11.10;;;;;;;;;;5049595;28;20017;-66
2022/11/11 09:16:55;;;;;;;19.67;11.05;;;;;;;;;;5049825;28;20105;-69
2022/11/11 09:19:21;;;;;;;17.17;9.98;;;;;;;;;;5049994;28;20025;-68
2022/11/11 09:21:47;;;;;;;17.27;10.52;;;;;;;;;;5032057;28;20017;-68
2022/11/11 09:24:13;;;;;;;17.20;10.13;;;;;;;;;;5049095;28;20028;-68
2022/11/11 09:26:39;;;;;;;18.30;10.25;;;;;;;;;;5049685;28;20075;-67
2022/11/11 09:29:05;;;;;;;15.90;9.50;;;;;;;;;;5031821;28;20488;-68
2022/11/11 09:31:31;;;;;;;16.17;9.70;;;;;;;;;;5049469;28;20014;-68
2022/11/11 09:33:57;;;;;;;17.50;9.80;;;;;;;;;;5048843;28;20044;-68
2022/11/11 09:36:23;;;;;;;15.50;9.45;;;;;;;;;;5049837;28;20033;-67
2022/11/11 09:38:49;;;;;;;19.25;10.38;;;;;;;;;;5049686;28;20025;-66
2022/11/11 09:41:24;;;;;;;23.80;10.63;;;;;;;;;;5049909;28;20040;-68
2022/11/11 09:43:55;;;;;;;18.13;10.23;;;;;;;;;;5030774;28;20090;-68
2022/11/11 09:46:24;;;;;;;17.20;9.90;;;;;;;;;;5049743;28;20413;-68
2022/11/11 09:49:02;;;;;;;16.98;9.40;;;;;;;;;;5052857;28;20381;-67
2022/11/11 09:51:54;;;;;;;17.55;9.27;;;;;;;;;;5053529;28;20031;-66
2022/11/11 09:54:31;;;;;;;16.52;9.60;;;;;;;;;;5029181;28;20068;-69
2022/11/11 09:56:59;;;;;;;17.67;10.88;;;;;;;;;;5053402;28;20065;-67
2022/11/11 09:59:28;;;;;;;18.40;9.60;;;;;;;;;;5053287;28;20023;-68
2022/11/11 10:01:59;;;;;;;17.15;10.10;;;;;;;;;;5053019;28;20108;-66
2022/11/11 10:04:27;;;;;;;17.88;9.73;;;;;;;;;;5052354;28;20459;-67
2022/11/11 10:07:00;;;;;;;15.63;9.75;;;;;;;;;;5034977;28;20228;-66
2022/11/11 10:09:50;;;;;;;15.02;9.02;;;;;;;;;;5053246;28;20037;-66
2022/11/11 10:12:16;;;;;;;16.33;9.35;;;;;;;;;;5053377;28;20400;-67
2022/11/11 10:14:45;;;;;;;18.95;10.20;;;;;;;;;;5055193;28;20474;-67
2022/11/11 10:17:23;;;;;;;17.98;9.82;;;;;;;;;;5055244;28;20031;-67
2022/11/11 10:20:07;;;;;;;16.95;10.05;;;;;;;;;;5072975;28;20024;-67
2022/11/11 10:22:44;;;;;;;16.23;9.75;;;;;;;;;;5072722;28;20496;-67
2022/11/11 10:25:15;;;;;;;17.33;9.60;;;;;;;;;;5054376;28;20098;-66
2022/11/11 10:27:45;;;;;;;15.02;8.95;;;;;;;;;;5072729;28;20084;-67
2022/11/11 10:30:24;;;;;;;17.17;9.82;;;;;;;;;;5072865;28;20411;-66
2022/11/11 10:33:14;;;;;;;15.77;9.80;;;;;;;;;;5069580;28;20029;-69
2022/11/11 10:35:40;;;;;;;16.02;9.77;;;;;;;;;;5054977;28;20066;-67
2022/11/11 10:38:09;;;;;;;15.40;9.45;;;;;;;;;;5072869;28;20028;-67
2022/11/11 10:40:41;;;;;;;15.80;9.50;;;;;;;;;;5072280;28;20458;-64
2022/11/11 10:43:33;;;;;;;16.73;10.10;;;;;;;;;;5053518;28;20129;-68
2022/11/11 10:46:18;;;;;;;17.27;9.90;;;;;;;;;;5029434;28;20084;-65
2022/11/11 10:48:50;;;;;;;18.67;9.70;;;;;;;;;;5032239;28;20202;-68
2022/11/11 10:51:17;;;;;;;16.30;9.48;;;;;;;;;;5014873;28;20025;-67
2022/11/11 10:53:44;;;;;;;16.00;9.50;;;;;;;;;;5013888;28;20056;-69
2022/11/11 10:56:10;;;;;;;14.98;9.15;;;;;;;;;;5032286;28;20018;-67
2022/11/11 10:58:39;;;;;;;16.30;9.60;;;;;;;;;;5031308;28;20048;-68
2022/11/11 11:01:07;;;;;;;14.57;9.13;;;;;;;;;;5014286;28;20025;-67
2022/11/11 11:04:02;;;;;;;14.68;8.82;;;;;;;;;;5031437;28;20026;-67
2022/11/11 11:06:33;;;;;;;17.27;9.90;;;;;;;;;;5019116;28;20099;-67
2022/11/11 11:09:08;;;;;;;15.68;10.27;;;;;;;;;;5014152;28;20120;-65
2022/11/11 11:11:46;;;;;;;16.30;10.30;;;;;;;;;;5032065;28;20029;-66
2022/11/11 11:14:24;;;;;;;15.68;10.20;;;;;;;;;;5031109;28;20022;-65
2022/11/11 11:16:54;;;;;;;16.33;10.13;;;;;;;;;;5031649;28;20026;-67
2022/11/11 11:19:24;;;;;;;17.73;10.80;;;;;;;;;;5031934;28;20393;-68
2022/11/11 11:21:53;;;;;;;15.55;9.88;;;;;;;;;;5032036;28;20017;-69
2022/11/11 11:24:24;;;;;;;17.08;10.38;;;;;;;;;;5013127;28;20025;-67
2022/11/11 11:26:51;;;;;;;18.35;10.65;;;;;;;;;;5031514;28;20444;-67
2022/11/11 11:29:28;;;;;;;18.23;10.40;;;;;;;;;;4682409;28;10000036;-68
2022/11/11 11:31:55;;;;;;;16.42;10.15;;;;;;;;;;5043193;28;20025;-66
2022/11/11 11:34:21;;;;;;;15.85;9.98;;;;;;;;;;5059640;28;20476;-68
2022/11/11 11:36:59;;;;;;;17.80;10.63;;;;;;;;;;5051275;28;20072;-69
2022/11/11 11:39:32;;;;;;;17.55;10.60;;;;;;;;;;5051328;28;20082;-67
2022/11/11 11:41:58;;;;;;;15.05;9.80;;;;;;;;;;5048425;28;20481;-68
2022/11/11 11:44:31;;;;;;;16.77;10.48;;;;;;;;;;5094458;22;20072;-64
2022/11/11 11:47:17;;;;;;;17.02;10.50;;;;;;;;;;5089984;28;20055;-65
2022/11/11 11:50:02;;;;;;;15.40;10.45;;;;;;;;;;5084010;28;20407;-63
2022/11/11 11:52:47;;;;;;;15.57;10.30;;;;;;;;;;5088409;28;20016;-65
2022/11/11 11:55:19;;;;;;;17.20;11.10;;;;;;;;;;5092671;28;20364;-65
2022/11/11 11:57:54;;;;;;;16.73;10.77;;;;;;;;;;5094050;28;20028;-63
2022/11/11 12:00:20;;;;;;;14.60;10.55;;;;;;;;;;5092831;28;20092;-64
2022/11/11 12:02:49;;;;;;;15.93;10.50;;;;;;;;;;5093044;28;20024;-63
2022/11/11 12:05:25;;;;;;;15.90;10.60;;;;;;;;;;5072102;28;20033;-64
2022/11/11 12:08:10;;;;;;;15.30;10.25;;;;;;;;;;5056265;28;20021;-64
2022/11/11 12:10:39;;;;;;;17.88;11.40;;;;;;;;;;4721465;28;9999898;-63
2022/11/11 12:13:30;;;;;;;15.60;10.57;;;;;;;;;;5070163;28;20078;-66
2022/11/11 12:16:02;;;;;;;16.60;10.38;;;;;;;;;;5072725;28;20392;-65
2022/11/11 12:18:48;;;;;;;16.60;10.88;;;;;;;;;;5072387;28;20020;-63
2022/11/11 12:21:15;;;;;;;16.85;10.50;;;;;;;;;;5073178;28;20083;-65
2022/11/11 12:24:00;;;;;;;17.55;10.60;;;;;;;;;;5072211;28;20039;-65
2022/11/11 12:26:33;;;;;;;15.40;10.65;;;;;;;;;;5072365;28;20037;-66
2022/11/11 12:29:32;;;;;;;15.80;10.82;;;;;;;;;;5074092;28;20021;-66
2022/11/11 12:32:03;;;;;;;16.05;10.65;;;;;;;;;;5013433;28;20046;-66
2022/11/11 12:34:35;;;;;;;15.57;10.38;;;;;;;;;;5073103;28;20504;-65
2022/11/11 12:37:04;;;;;;;15.95;10.70;;;;;;;;;;5072934;28;20035;-65
2022/11/11 12:39:49;;;;;;;16.95;10.52;;;;;;;;;;5070947;28;20024;-62
2022/11/11 12:42:16;;;;;;;18.75;11.20;;;;;;;;;;5071496;28;20055;-65
2022/11/11 12:44:48;;;;;;;15.73;10.80;;;;;;;;;;5071224;28;20028;-65
2022/11/11 12:47:35;;;;;;;15.90;10.82;;;;;;;;;;5073863;28;20035;-66
2022/11/11 12:50:08;;;;;;;16.15;10.77;;;;;;;;;;5073628;28;20032;-67
2022/11/11 12:52:54;;;;;;;15.63;10.48;;;;;;;;;;5071131;28;20028;-65
2022/11/11 12:55:20;;;;;;;15.75;10.30;;;;;;;;;;5033587;28;20124;-66
2022/11/11 12:58:12;;;;;;;16.63;10.02;;;;;;;;;;5054735;28;20028;-64
2022/11/11 13:00:43;;;;;;;15.88;10.00;;;;;;;;;;5054590;28;20029;-64
2022/11/11 13:03:12;;;;;;;15.98;10.15;;;;;;;;;;5070865;28;20066;-64
2022/11/11 13:05:59;;;;;;;15.80;10.50;;;;;;;;;;5072354;28;20024;-65
2022/11/11 13:08:43;;;;;;;16.17;10.70;;;;;;;;;;5072655;28;20033;-64
2022/11/11 13:11:12;;;;;;;16.00;10.45;;;;;;;;;;5054381;28;20481;-64
2022/11/11 13:13:57;;;;;;;15.13;10.13;;;;;;;;;;5072111;28;20020;-63
2022/11/11 13:16:24;;;;;;;16.65;10.70;;;;;;;;;;5072821;28;20373;-66
2022/11/11 13:18:56;;;;;;;14.88;10.55;;;;;;;;;;5072406;28;20090;-64
2022/11/11 13:21:26;;;;;;;15.25;10.57;;;;;;;;;;5053098;28;20416;-63
2022/11/11 13:23:52;;;;;;;18.85;10.48;;;;;;;;;;5057159;28;20115;-64
2022/11/11 13:26:39;;;;;;;16.40;10.60;;;;;;;;;;5058463;28;20116;-65
2022/11/11 13:29:23;;;;;;;14.63;10.52;;;;;;;;;;5058107;28;20032;-64
2022/11/11 13:31:50;;;;;;;15.25;10.45;;;;;;;;;;5056401;28;20024;-63
2022/11/11 13:34:17;;;;;;;15.85;10.57;;;;;;;;;;5055680;28;20354;-66
2022/11/11 13:36:51;;;;;;;18.13;11.10;;;;;;;;;;5056083;28;20051;-65
2022/11/11 13:39:22;;;;;;;18.15;11.55;;;;;;;;;;5056313;28;20418;-63
2022/11/11 13:41:50;;;;;;;15.55;10.60;;;;;;;;;;5055816;28;20497;-66
2022/11/11 13:44:35;;;;;;;16.95;10.70;;;;;;;;;;5055082;28;20083;-66
2022/11/11 13:47:04;;;;;;;16.25;11.38;;;;;;;;;;5055765;28;20033;-66
2022/11/11 13:49:40;;;;;;;17.13;11.80;;;;;;;;;;5055883;28;20040;-65
2022/11/11 13:52:19;;;;;;;17.27;12.10;;;;;;;;;;5055587;28;20043;-63
2022/11/11 13:55:06;;;;;;;17.15;11.88;;;;;;;;;;5037138;28;20108;-65
2022/11/11 13:57:34;;;;;;;18.08;11.48;;;;;;;;;;5055443;28;20047;-66
2022/11/11 14:00:27;;;;;;;15.77;11.63;;;;;;;;;;5055552;28;20047;-66
2022/11/11 14:03:12;;;;;;;17.75;11.60;;;;;;;;;;5050311;28;20082;-64
2022/11/11 14:05:38;;;;;;;16.30;11.18;;;;;;;;;;5055585;28;20469;-66
2022/11/11 14:08:04;;;;;;;16.23;11.63;;;;;;;;;;5037499;28;20029;-65
2022/11/11 14:10:30;;;;;;;16.92;12.15;;;;;;;;;;5055466;28;20102;-64
2022/11/11 14:12:57;;;;;;;17.73;11.60;;;;;;;;;;5054898;28;20028;-70
2022/11/11 14:15:42;;;;;;;15.63;10.85;;;;;;;;;;5054785;28;20025;-65
2022/11/11 14:18:31;;;;;;;17.08;11.32;;;;;;;;;;5037234;28;20441;-65
2022/11/11 14:20:57;;;;;;;17.45;11.32;;;;;;;;;;5042943;28;20037;-68
2022/11/11 14:23:33;;;;;;;17.25;11.43;;;;;;;;;;5037815;28;20056;-63
2022/11/11 14:26:08;;;;;;;16.88;11.20;;;;;;;;;;5039335;28;20477;-64
2022/11/11 14:28:41;;;;;;;17.60;11.60;;;;;;;;;;5055482;28;20061;-64
2022/11/11 14:31:13;;;;;;;16.73;11.50;;;;;;;;;;5070397;28;20442;-64
2022/11/11 14:33:58;;;;;;;16.33;11.40;;;;;;;;;;5072876;28;20385;-63
2022/11/11 14:36:32;;;;;;;17.08;11.45;;;;;;;;;;5074758;28;20032;-64
2022/11/11 14:39:24;;;;;;;16.92;10.80;;;;;;;;;;5074902;28;20020;-64
2022/11/11 14:41:51;;;;;;;15.93;10.75;;;;;;;;;;5050660;28;20190;-62
2022/11/11 14:44:27;;;;;;;19.05;12.13;;;;;;;;;;5071698;28;20041;-63
2022/11/11 14:47:16;;;;;;;16.15;11.38;;;;;;;;;;5074982;28;20028;-66
2022/11/11 14:49:45;;;;;;;17.40;11.25;;;;;;;;;;5069642;28;20036;-62
2022/11/11 14:52:30;;;;;;;17.45;11.15;;;;;;;;;;5074977;28;20099;-64
2022/11/11 14:55:05;;;;;;;16.58;11.75;;;;;;;;;;5074684;28;20036;-61
2022/11/11 14:57:49;;;;;;;23.23;17.45;;;;;;;;;;5074921;28;20400;-62
2022/11/11 15:00:18;;;;;;;19.95;11.20;;;;;;;;;;5075075;28;20024;-64
2022/11/11 15:02:53;;;;;;;16.17;10.00;;;;;;;;;;5074882;28;20031;-65
2022/11/11 15:05:45;;;;;;;19.42;10.63;;;;;;;;;;5074424;28;20024;-65
2022/11/11 15:08:19;;;;;;;17.17;11.60;;;;;;;;;;5058580;28;20118;-69
2022/11/11 15:11:09;;;;;;;16.42;11.23;;;;;;;;;;5073903;28;20040;-62
2022/11/11 15:13:42;;;;;;;16.75;11.38;;;;;;;;;;5073153;28;20024;-62
2022/11/11 15:16:27;;;;;;;16.15;11.18;;;;;;;;;;5074094;28;20020;-63
2022/11/11 15:19:02;;;;;;;19.88;10.95;;;;;;;;;;5073989;28;20024;-63
2022/11/11 15:21:35;;;;;;;17.80;11.48;;;;;;;;;;5062725;28;20025;-65
2022/11/11 15:24:04;;;;;;;16.20;11.10;;;;;;;;;;5073196;28;20488;-64
2022/11/11 15:26:59;;;;;;;17.23;10.70;;;;;;;;;;5077302;28;20444;-64
2022/11/11 15:29:54;;;;;;;17.60;10.30;;;;;;;;;;5003390;28;20541;-63
2022/11/11 15:32:53;;;;;;;16.60;10.65;;;;;;;;;;5052528;28;20041;-64
2022/11/11 15:35:26;;;;;;;15.98;10.00;;;;;;;;;;5010894;28;20032;-63
2022/11/11 15:37:54;;;;;;;17.48;10.43;;;;;;;;;;5073021;28;20027;-62
2022/11/11 15:40:21;;;;;;;16.47;10.40;;;;;;;;;;5073931;28;20056;-63
2022/11/11 15:42:48;;;;;;;16.83;9.85;;;;;;;;;;5073439;28;20630;-63
2022/11/11 15:45:17;;;;;;;15.90;9.77;;;;;;;;;;5073043;28;20020;-61
2022/11/11 15:47:44;;;;;;;15.65;9.68;;;;;;;;;;5092519;28;20031;-67
2022/11/11 15:50:25;;;;;;;17.33;9.75;;;;;;;;;;5100630;28;20023;-65